createdAt,value
2023-01-12T00:00:02.844Z,72.51
2023-01-12T00:02:29.566Z,71.93
2023-01-12T00:04:57.557Z,71.72
2023-01-12T00:07:24.084Z,72.20
2023-01-12T00:09:50.621Z,71.52
2023-01-12T00:12:17.167Z,71.54
2023-01-12T00:14:43.796Z,71.64
2023-01-12T00:17:10.471Z,72.35
2023-01-12T00:19:37.289Z,73.38
2023-01-12T00:22:05.474Z,74.18
2023-01-12T00:24:33.727Z,73.14
2023-01-12T00:27:02.051Z,73.94
2023-01-12T00:29:28.880Z,74.34
2023-01-12T00:31:57.693Z,73.99
2023-01-12T00:34:25.126Z,73.50
2023-01-12T00:36:52.267Z,74.12
2023-01-12T00:39:21.210Z,74.24
2023-01-12T00:41:47.987Z,74.76
2023-01-12T00:44:14.600Z,75.22
2023-01-12T00:46:41.062Z,74.65
2023-01-12T00:49:07.701Z,74.40
2023-01-12T00:51:34.421Z,74.41
2023-01-12T00:54:01.160Z,74.39
2023-01-12T00:56:29.194Z,74.29
2023-01-12T00:58:55.591Z,74.25
2023-01-12T01:01:22.404Z,74.46
2023-01-12T01:03:48.941Z,74.44
2023-01-12T01:06:15.484Z,74.54
2023-01-12T01:08:42.016Z,74.55
2023-01-12T01:11:12.113Z,73.86
2023-01-12T01:13:41.231Z,74.19
2023-01-12T01:16:08.524Z,75.25
2023-01-12T01:18:35.657Z,75.52
2023-01-12T01:21:02.972Z,73.97
2023-01-12T01:23:32.661Z,74.40
2023-01-12T01:26:02.317Z,74.92
2023-01-12T01:28:28.969Z,76.19
2023-01-12T01:31:03.278Z,74.34
2023-01-12T01:33:29.896Z,73.58
2023-01-12T01:35:56.554Z,74.89
2023-01-12T01:38:23.365Z,75.16
2023-01-12T01:40:50.058Z,74.07
2023-01-12T01:43:18.352Z,75.31
2023-01-12T01:45:56.467Z,75.07
2023-01-12T01:48:26.575Z,74.01
2023-01-12T01:50:57.927Z,73.67
2023-01-12T01:53:29.298Z,74.54
2023-01-12T01:55:59.887Z,73.93
2023-01-12T01:58:30.754Z,74.45
2023-01-12T02:01:06.718Z,74.34
2023-01-12T02:03:36.933Z,73.74
2023-01-12T02:06:05.332Z,73.81
2023-01-12T02:08:40.823Z,74.30
2023-01-12T02:11:08.259Z,74.07
2023-01-12T02:13:34.804Z,73.98
2023-01-12T02:16:10.145Z,73.67
2023-01-12T02:18:44.796Z,74.49
2023-01-12T02:21:27.548Z,73.77
2023-01-12T02:24:31.047Z,73.13
2023-01-12T02:27:26.262Z,72.08
2023-01-12T02:30:22.324Z,71.65
2023-01-12T02:33:00.393Z,71.94
2023-01-12T02:35:32.113Z,71.35
2023-01-12T02:38:06.853Z,72.12
2023-01-12T02:40:42.508Z,71.50
2023-01-12T02:43:14.568Z,72.38
2023-01-12T02:45:53.516Z,72.19
2023-01-12T02:48:26.665Z,72.49
2023-01-12T02:50:58.439Z,72.62
2023-01-12T02:53:32.252Z,72.78
2023-01-12T02:56:01.842Z,73.15
2023-01-12T02:58:32.324Z,73.36
2023-01-12T03:01:01.039Z,73.01
2023-01-12T03:03:29.736Z,74.01
2023-01-12T03:05:58.037Z,73.59
2023-01-12T03:08:26.586Z,74.17
2023-01-12T03:11:04.389Z,74.12
2023-01-12T03:13:34.969Z,74.01
2023-01-12T03:16:04.572Z,73.73
2023-01-12T03:18:36.862Z,75.55
2023-01-12T03:21:07.349Z,74.70
2023-01-12T03:23:41.407Z,74.50
2023-01-12T03:26:10.518Z,74.94
2023-01-12T03:28:40.413Z,74.55
2023-01-12T03:31:09.474Z,74.68
2023-01-12T03:33:37.973Z,74.90
2023-01-12T03:36:13.059Z,74.84
2023-01-12T03:38:46.883Z,74.85
2023-01-12T03:41:22.329Z,74.83
2023-01-12T03:43:55.011Z,74.44
2023-01-12T03:46:27.367Z,74.31
2023-01-12T03:49:01.332Z,74.29
2023-01-12T03:51:32.721Z,74.59
2023-01-12T03:54:00.666Z,74.56
2023-01-12T03:56:31.614Z,74.14
2023-01-12T03:58:58.489Z,73.97
2023-01-12T04:01:25.125Z,74.78
2023-01-12T04:03:51.798Z,75.22
2023-01-12T04:06:19.729Z,74.81
2023-01-12T04:08:46.370Z,74.31
2023-01-12T04:11:12.861Z,74.96
2023-01-12T04:13:39.355Z,74.70
2023-01-12T04:16:06.245Z,73.87
2023-01-12T04:18:32.988Z,73.33
2023-01-12T04:20:59.457Z,73.51
2023-01-12T04:23:27.248Z,73.66
2023-01-12T04:25:54.162Z,74.48
2023-01-12T04:28:20.676Z,73.39
2023-01-12T04:30:52.587Z,73.80
2023-01-12T04:33:19.276Z,74.39
2023-01-12T04:35:46.965Z,74.88
2023-01-12T04:38:13.521Z,74.58
2023-01-12T04:40:41.356Z,74.88
2023-01-12T04:43:09.083Z,74.87
2023-01-12T04:45:37.681Z,74.75
2023-01-12T04:48:06.606Z,73.98
2023-01-12T04:50:33.561Z,74.99
2023-01-12T04:53:02.105Z,74.91
2023-01-12T04:55:28.821Z,75.83
2023-01-12T04:57:57.573Z,75.31
2023-01-12T05:00:24.814Z,76.21
2023-01-12T05:02:54.557Z,76.11
2023-01-12T05:05:21.142Z,77.06
2023-01-12T05:07:47.590Z,76.84
2023-01-12T05:10:14.156Z,76.73
2023-01-12T05:12:40.733Z,77.01
2023-01-12T05:15:09.499Z,76.89
2023-01-12T05:17:36.072Z,76.77
2023-01-12T05:20:02.790Z,76.58
2023-01-12T05:22:31.429Z,76.51
2023-01-12T05:24:57.988Z,76.49
2023-01-12T05:27:24.487Z,76.81
2023-01-12T05:29:51.051Z,76.25
2023-01-12T05:32:19.037Z,76.90
2023-01-12T05:34:45.565Z,77.40
2023-01-12T05:37:18.112Z,78.19
2023-01-12T05:39:44.582Z,77.44
2023-01-12T05:42:11.782Z,76.44
2023-01-12T05:44:38.390Z,77.33
2023-01-12T05:47:04.984Z,77.54
2023-01-12T05:49:32.998Z,77.40
2023-01-12T05:51:59.479Z,77.88
2023-01-12T05:54:26.037Z,78.73
2023-01-12T05:56:52.614Z,77.83
2023-01-12T05:59:22.395Z,78.01
2023-01-12T06:01:55.545Z,77.64
2023-01-12T06:04:27.827Z,77.63
2023-01-12T06:07:14.503Z,76.67
2023-01-12T06:10:06.495Z,77.17
2023-01-12T06:12:33.041Z,76.94
2023-01-12T06:14:59.655Z,77.75
2023-01-12T06:17:26.276Z,78.09
2023-01-12T06:19:52.750Z,77.98
2023-01-12T06:22:26.609Z,78.56
2023-01-12T06:24:53.561Z,78.31
2023-01-12T06:27:20.199Z,77.57
2023-01-12T06:29:47.131Z,78.18
2023-01-12T06:32:13.727Z,78.25
2023-01-12T06:34:40.301Z,77.30
2023-01-12T06:37:07.347Z,76.99
2023-01-12T06:39:35.335Z,78.15
2023-01-12T06:42:04.052Z,77.99
2023-01-12T06:44:30.632Z,77.54
2023-01-12T06:46:57.548Z,77.07
2023-01-12T06:49:25.352Z,77.99
2023-01-12T06:55:03.801Z,77.31
2023-01-12T06:57:31.909Z,78.00
2023-01-12T06:59:58.404Z,77.40
2023-01-12T07:02:25.072Z,77.88
2023-01-12T07:04:51.630Z,77.52
2023-01-12T07:07:19.983Z,77.76
2023-01-12T07:09:46.473Z,76.88
2023-01-12T07:12:14.327Z,76.27
2023-01-12T07:14:41.175Z,76.75
2023-01-12T07:17:07.704Z,77.28
2023-01-12T07:19:34.628Z,77.52
2023-01-12T07:22:01.227Z,77.76
2023-01-12T07:24:27.781Z,77.93
2023-01-12T07:26:54.285Z,77.95
2023-01-12T07:29:22.213Z,79.33
2023-01-12T07:31:48.833Z,78.05
2023-01-12T07:34:16.921Z,77.80
2023-01-12T07:36:43.649Z,78.22
2023-01-12T07:39:10.344Z,78.67
2023-01-12T07:41:36.983Z,78.36
2023-01-12T07:44:03.704Z,78.40
2023-01-12T07:46:31.765Z,77.52
2023-01-12T07:48:58.317Z,77.81
2023-01-12T07:51:25.143Z,77.06
2023-01-12T07:53:51.709Z,76.50
2023-01-12T07:56:18.261Z,76.50
2023-01-12T07:58:47.501Z,77.51
2023-01-12T08:01:14.316Z,78.55
2023-01-12T08:03:42.281Z,78.12
2023-01-12T08:06:09.037Z,77.45
2023-01-12T08:08:35.806Z,77.66
2023-01-12T08:11:05.180Z,78.06
2023-01-12T08:13:31.779Z,77.55
2023-01-12T08:16:08.847Z,78.22
2023-01-12T08:18:40.332Z,78.91
2023-01-12T08:21:30.605Z,78.36
2023-01-12T08:24:00.442Z,79.11
2023-01-12T08:26:31.647Z,77.93
2023-01-12T08:29:02.908Z,77.23
2023-01-12T08:31:31.291Z,77.79
2023-01-12T08:33:58.199Z,78.58
2023-01-12T08:36:25.635Z,77.79
2023-01-12T08:38:53.753Z,77.69
2023-01-12T08:41:21.551Z,77.69
2023-01-12T08:43:48.098Z,77.63
2023-01-12T08:46:14.789Z,77.43
2023-01-12T08:48:41.477Z,77.15
2023-01-12T08:51:08.588Z,77.02
2023-01-12T08:53:35.389Z,77.42
2023-01-12T08:56:03.663Z,77.62
2023-01-12T08:58:30.966Z,77.21
2023-01-12T09:00:57.803Z,76.33
2023-01-12T09:03:24.452Z,77.70
2023-01-12T09:05:50.959Z,76.87
2023-01-12T09:08:17.592Z,76.98
2023-01-12T09:10:44.144Z,76.33
2023-01-12T09:13:12.059Z,77.40
2023-01-12T09:15:38.798Z,77.39
2023-01-12T09:18:05.466Z,76.50
2023-01-12T09:20:32.062Z,75.99
2023-01-12T09:22:58.565Z,76.00
2023-01-12T09:25:25.116Z,75.83
2023-01-12T09:27:51.699Z,75.84
2023-01-12T09:30:19.717Z,76.26
2023-01-12T09:32:46.253Z,76.84
2023-01-12T09:35:12.948Z,77.11
2023-01-12T09:37:39.490Z,76.60
2023-01-12T09:40:07.561Z,75.60
2023-01-12T09:42:34.768Z,75.93
2023-01-12T09:45:03.611Z,75.52
2023-01-12T09:47:36.182Z,75.38
2023-01-12T09:50:09.997Z,75.47
2023-01-12T09:52:41.699Z,75.71
2023-01-12T09:55:15.111Z,75.28
2023-01-12T09:58:24.147Z,74.97
2023-01-12T10:00:51.525Z,74.78
2023-01-12T10:03:29.097Z,74.79
2023-01-12T10:05:58.459Z,74.31
2023-01-12T10:08:35.126Z,74.40
2023-01-12T10:11:11.065Z,74.03
2023-01-12T10:14:14.641Z,74.02
2023-01-12T10:16:52.867Z,75.43
2023-01-12T10:19:24.994Z,75.30
2023-01-12T10:21:53.520Z,74.79
2023-01-12T10:24:22.853Z,74.26
2023-01-12T10:26:55.553Z,74.63
2023-01-12T10:29:22.259Z,74.36
2023-01-12T10:31:48.918Z,74.18
2023-01-12T10:34:15.534Z,74.62
2023-01-12T10:36:45.567Z,74.23
2023-01-12T10:39:39.090Z,74.00
2023-01-12T10:42:20.072Z,75.20
2023-01-12T10:44:46.598Z,74.39
2023-01-12T10:47:18.192Z,73.76
2023-01-12T10:49:44.696Z,74.31
2023-01-12T10:52:31.263Z,74.08
2023-01-12T10:54:59.029Z,74.29
2023-01-12T10:57:25.616Z,74.47
2023-01-12T10:59:54.391Z,74.61
2023-01-12T11:02:21.310Z,74.20
2023-01-12T11:04:49.656Z,73.86
2023-01-12T11:07:18.930Z,73.37
2023-01-12T11:09:46.285Z,73.57
2023-01-12T11:12:23.736Z,73.70
2023-01-12T11:15:03.321Z,74.04
2023-01-12T11:17:53.661Z,74.19
2023-01-12T11:20:27.313Z,75.19
2023-01-12T11:22:59.342Z,75.19
2023-01-12T11:26:13.217Z,74.48
2023-01-12T11:42:21.762Z,74.69
2023-01-12T11:44:57.165Z,74.64
2023-01-12T11:47:27.709Z,75.31
2023-01-12T11:50:02.269Z,74.95
2023-01-12T11:52:29.830Z,75.37
2023-01-12T11:54:56.616Z,76.01
2023-01-12T11:57:39.800Z,75.51
2023-01-12T12:00:22.901Z,74.09
2023-01-12T12:02:59.824Z,74.48
2023-01-12T12:05:36.895Z,74.11
2023-01-12T12:08:14.353Z,74.64
2023-01-12T12:10:47.813Z,73.74
2023-01-12T12:13:32.953Z,74.28
2023-01-12T12:16:23.567Z,73.86
2023-01-12T12:19:02.575Z,74.00
2023-01-12T12:21:43.525Z,74.41
2023-01-12T12:24:56.836Z,74.88
2023-01-12T12:27:38.655Z,74.54
2023-01-12T12:30:41.214Z,74.36
2023-01-12T12:33:16.077Z,74.63
2023-01-12T12:35:59.567Z,75.15
2023-01-12T12:38:36.742Z,74.12
2023-01-12T12:41:17.956Z,74.50
2023-01-12T12:43:50.214Z,73.59
2023-01-12T12:46:26.919Z,74.21
2023-01-12T12:49:00.350Z,74.21
2023-01-12T12:51:30.463Z,73.77
2023-01-12T12:53:58.980Z,75.23
2023-01-12T12:56:28.164Z,74.67
2023-01-12T12:58:56.731Z,74.53
2023-01-12T13:01:58.019Z,74.36
2023-01-12T13:04:59.894Z,73.70
2023-01-12T13:07:27.759Z,74.14
2023-01-12T13:10:20.959Z,74.31
2023-01-12T13:13:01.131Z,74.66
2023-01-12T13:15:30.714Z,74.80
2023-01-12T13:18:06.116Z,73.94
2023-01-12T13:24:14.173Z,74.45
2023-01-12T13:26:43.037Z,74.28
2023-01-12T13:29:36.901Z,74.55
2023-01-12T13:32:35.006Z,74.06
2023-01-12T13:35:37.338Z,74.03
2023-01-12T13:38:11.745Z,75.41
2023-01-12T13:40:38.746Z,75.06
2023-01-12T13:43:15.707Z,74.47
2023-01-12T13:46:12.541Z,74.90
2023-01-12T13:48:43.844Z,74.33
2023-01-12T13:51:18.634Z,75.69
2023-01-12T13:53:57.257Z,75.26
2023-01-12T13:56:23.834Z,76.44
2023-01-12T13:58:51.700Z,75.39
2023-01-12T14:01:23.045Z,74.86
2023-01-12T14:04:19.963Z,75.59
2023-01-12T14:07:02.560Z,75.54
2023-01-12T14:09:41.513Z,75.24
2023-01-12T14:12:37.075Z,76.76
2023-01-12T14:15:23.476Z,76.36
2023-01-12T14:17:50.552Z,75.88
2023-01-12T14:20:19.440Z,76.19
2023-01-12T14:22:47.679Z,76.68
2023-01-12T14:28:40.217Z,76.79
2023-01-12T14:31:14.655Z,76.78
2023-01-12T14:33:51.738Z,76.60
2023-01-12T14:36:22.233Z,76.38
2023-01-12T14:38:51.843Z,76.31
2023-01-12T14:41:21.598Z,76.36
2023-01-12T14:43:51.741Z,76.48
2023-01-12T14:46:26.016Z,75.89
2023-01-12T14:48:59.178Z,76.33
2023-01-12T14:51:27.633Z,75.88
2023-01-12T14:54:01.557Z,75.56
2023-01-12T14:56:39.364Z,74.99
2023-01-12T14:59:08.479Z,75.31
2023-01-12T15:01:37.357Z,77.42
2023-01-12T15:04:06.154Z,77.42
2023-01-12T15:06:39.235Z,76.72
2023-01-12T15:09:24.770Z,76.09
2023-01-12T15:12:31.894Z,76.31
2023-01-12T15:15:16.752Z,76.26
2023-01-12T15:17:43.846Z,76.20
2023-01-12T15:20:12.601Z,76.83
2023-01-12T15:22:39.199Z,76.82
2023-01-12T15:25:12.755Z,77.16
2023-01-12T15:27:39.331Z,76.64
2023-01-12T15:30:08.071Z,76.27
2023-01-12T15:32:46.702Z,75.47
2023-01-12T15:35:16.158Z,77.21
2023-01-12T15:37:42.815Z,76.11
2023-01-12T15:40:30.767Z,75.84
2023-01-12T15:42:57.445Z,75.48
2023-01-12T15:45:31.847Z,75.88
2023-01-12T15:47:58.391Z,76.96
2023-01-12T15:50:24.970Z,76.87
2023-01-12T15:52:51.578Z,77.29
2023-01-12T15:55:20.376Z,77.39
2023-01-12T15:57:48.833Z,76.55
2023-01-12T16:00:17.733Z,77.31
2023-01-12T16:02:45.118Z,78.18
2023-01-12T16:05:12.500Z,77.02
2023-01-12T16:07:39.282Z,77.30
2023-01-12T16:10:06.950Z,76.79
2023-01-12T16:12:33.490Z,76.98
2023-01-12T16:15:01.439Z,78.11
2023-01-12T16:17:29.000Z,77.75
2023-01-12T16:19:55.686Z,77.18
2023-01-12T16:22:24.044Z,76.48
2023-01-12T16:24:52.368Z,76.78
2023-01-12T16:27:20.230Z,77.49
2023-01-12T16:29:46.897Z,77.00
2023-01-12T16:32:21.922Z,76.24
2023-01-12T16:34:49.940Z,76.15
2023-01-12T16:37:17.072Z,76.57
2023-01-12T16:39:43.705Z,76.50
2023-01-12T16:42:10.838Z,75.86
2023-01-12T16:44:38.571Z,76.30
2023-01-12T16:47:05.501Z,76.51
2023-01-12T16:49:35.676Z,77.28
2023-01-12T16:52:03.124Z,77.22
2023-01-12T16:54:29.932Z,77.25
2023-01-12T16:56:56.691Z,76.56
2023-01-12T16:59:23.629Z,76.49
2023-01-12T17:01:51.183Z,76.31
2023-01-12T17:04:18.129Z,76.15
2023-01-12T17:06:47.127Z,76.05
2023-01-12T17:09:14.220Z,75.47
2023-01-12T17:11:41.374Z,76.00
2023-01-12T17:14:10.773Z,74.76
2023-01-12T17:16:41.810Z,75.00
2023-01-12T17:19:08.425Z,75.34
2023-01-12T17:21:35.125Z,75.74
2023-01-12T17:24:03.136Z,75.64
2023-01-12T17:26:29.691Z,75.15
2023-01-12T17:28:56.353Z,75.61
2023-01-12T17:31:45.744Z,74.76
2023-01-12T17:34:12.062Z,75.45
2023-01-12T17:36:38.993Z,76.15
2023-01-12T17:42:07.133Z,76.40
2023-01-12T17:44:33.704Z,77.10
2023-01-12T17:47:03.429Z,77.18
2023-01-12T17:49:30.190Z,77.25
2023-01-12T17:51:59.797Z,77.35
2023-01-12T17:54:27.765Z,77.18
2023-01-12T17:56:54.378Z,76.72
2023-01-12T17:59:22.955Z,76.13
2023-01-12T18:01:55.152Z,77.40
2023-01-12T18:04:21.863Z,76.07
2023-01-12T18:06:48.449Z,76.20
2023-01-12T18:09:17.928Z,76.39
2023-01-12T18:11:48.551Z,76.93
2023-01-12T18:14:17.009Z,76.97
2023-01-12T18:16:43.559Z,77.33
2023-01-12T18:19:10.678Z,77.48
2023-01-12T18:21:37.227Z,76.39
2023-01-12T18:24:04.151Z,77.52
2023-01-12T18:26:32.701Z,77.43
2023-01-12T18:29:01.599Z,76.98
2023-01-12T18:31:30.258Z,77.08
2023-01-12T18:33:58.479Z,77.74
2023-01-12T18:36:27.994Z,77.35
2023-01-12T18:38:54.752Z,77.89
2023-01-12T18:41:22.483Z,77.73
2023-01-12T18:43:49.094Z,76.88
2023-01-12T18:46:17.158Z,76.83
2023-01-12T18:48:44.409Z,77.67
2023-01-12T18:51:11.345Z,77.13
2023-01-12T18:53:37.896Z,76.74
2023-01-12T18:56:05.027Z,76.93
2023-01-12T18:58:33.415Z,76.68
2023-01-12T19:01:02.400Z,76.35
2023-01-12T19:03:30.404Z,77.00
2023-01-12T19:05:57.081Z,77.43
2023-01-12T19:08:33.834Z,78.04
2023-01-12T19:11:07.629Z,77.45
2023-01-12T19:13:34.159Z,78.57
2023-01-12T19:16:00.874Z,77.61
2023-01-12T19:18:27.729Z,78.53
2023-01-12T19:21:39.140Z,77.29
2023-01-12T19:24:10.623Z,77.42
2023-01-12T19:26:37.190Z,77.42
2023-01-12T19:29:03.689Z,76.89
2023-01-12T19:31:31.704Z,77.82
2023-01-12T19:34:00.789Z,76.68
2023-01-12T19:36:27.412Z,76.89
2023-01-12T19:38:53.958Z,76.85
2023-01-12T19:41:21.929Z,77.16
2023-01-12T19:43:48.434Z,77.48
2023-01-12T19:46:15.143Z,76.63
2023-01-12T19:48:42.851Z,76.91
2023-01-12T19:51:11.209Z,77.80
2023-01-12T19:53:39.276Z,77.34
2023-01-12T19:56:10.542Z,78.19
2023-01-12T19:58:39.102Z,77.37
2023-01-12T20:01:05.781Z,76.45
2023-01-12T20:03:32.741Z,76.46
2023-01-12T20:06:04.184Z,76.96
2023-01-12T20:08:30.729Z,76.76
2023-01-12T20:10:59.362Z,76.20
2023-01-12T20:13:26.828Z,76.07
2023-01-12T20:15:55.213Z,75.55
2023-01-12T20:18:21.809Z,75.08
2023-01-12T20:21:21.260Z,75.19
2023-01-12T20:23:50.689Z,75.60
2023-01-12T20:26:17.782Z,75.65
2023-01-12T20:28:47.757Z,75.15
2023-01-12T20:31:16.210Z,75.07
2023-01-12T20:33:43.218Z,74.86
2023-01-12T20:36:11.391Z,76.48
2023-01-12T20:38:37.965Z,76.38
2023-01-12T20:41:05.163Z,76.31
2023-01-12T20:43:31.726Z,76.09
2023-01-12T20:45:58.261Z,76.45
2023-01-12T20:48:29.889Z,76.76
2023-01-12T20:50:56.418Z,76.92
2023-01-12T20:53:22.944Z,76.49
2023-01-12T20:55:50.717Z,76.09
2023-01-12T20:58:17.987Z,76.03
2023-01-12T21:00:44.985Z,75.95
2023-01-12T21:03:11.604Z,75.26
2023-01-12T21:05:42.496Z,75.66
2023-01-12T21:08:09.086Z,75.74
2023-01-12T21:10:36.318Z,75.82
2023-01-12T21:13:02.969Z,76.26
2023-01-12T21:15:29.491Z,76.63
2023-01-12T21:17:56.087Z,77.03
2023-01-12T21:20:22.656Z,76.79
2023-01-12T21:22:51.051Z,76.48
2023-01-12T21:25:17.683Z,76.54
2023-01-12T21:27:44.326Z,76.93
2023-01-12T21:30:11.776Z,77.80
2023-01-12T21:32:38.389Z,76.82
2023-01-12T21:35:05.620Z,77.19
2023-01-12T21:37:32.480Z,76.64
2023-01-12T21:40:00.425Z,77.08
2023-01-12T21:42:28.298Z,76.97
2023-01-12T21:44:57.886Z,77.25
2023-01-12T21:47:24.499Z,76.87
2023-01-12T21:49:56.081Z,76.28
2023-01-12T21:52:22.591Z,76.29
2023-01-12T21:54:56.374Z,76.56
2023-01-12T21:57:24.496Z,76.64
2023-01-12T21:59:51.042Z,77.51
2023-01-12T22:02:18.060Z,78.09
2023-01-12T22:04:44.660Z,76.98
2023-01-12T22:07:11.162Z,78.09
2023-01-12T22:09:37.785Z,77.53
2023-01-12T22:12:04.708Z,77.54
2023-01-12T22:14:32.576Z,76.22
2023-01-12T22:16:59.143Z,77.38
2023-01-12T22:19:25.850Z,77.87
2023-01-12T22:21:52.394Z,77.64
2023-01-12T22:24:18.992Z,76.98
2023-01-12T22:26:45.649Z,76.40
2023-01-12T22:29:12.273Z,76.83
2023-01-12T22:31:40.287Z,77.41
2023-01-12T22:34:10.174Z,76.21
2023-01-12T22:36:36.668Z,76.81
2023-01-12T22:39:03.787Z,76.50
2023-01-12T22:41:30.400Z,76.73
2023-01-12T22:43:56.993Z,76.85
2023-01-12T22:46:25.342Z,76.81
2023-01-12T22:48:54.533Z,76.29
2023-01-12T22:51:22.874Z,76.46
2023-01-12T22:53:49.418Z,76.27
2023-01-12T22:56:16.495Z,75.97
2023-01-12T22:58:46.434Z,75.93
2023-01-12T23:01:13.749Z,77.18
2023-01-12T23:03:40.271Z,76.53
2023-01-12T23:06:10.781Z,76.28
2023-01-12T23:08:37.311Z,76.21
2023-01-12T23:11:05.596Z,77.23
2023-01-12T23:13:32.302Z,76.91
2023-01-12T23:16:02.494Z,76.65
2023-01-12T23:18:30.623Z,76.21
2023-01-12T23:21:01.152Z,76.24
2023-01-12T23:23:29.296Z,75.72
2023-01-12T23:26:06.483Z,75.15
2023-01-12T23:28:33.037Z,75.19
2023-01-12T23:31:04.496Z,75.25
2023-01-12T23:33:31.151Z,75.61
2023-01-12T23:36:02.352Z,76.25
2023-01-12T23:38:30.275Z,76.27
2023-01-12T23:40:56.780Z,76.15
2023-01-12T23:43:23.259Z,77.33
2023-01-12T23:45:49.816Z,77.86
2023-01-12T23:48:16.540Z,76.79
2023-01-12T23:50:43.056Z,77.78
2023-01-12T23:53:09.542Z,76.87
2023-01-12T23:55:38.983Z,77.10
2023-01-12T23:58:05.444Z,76.75
